METAR Data
IDs: Format: Raw Decoded Include TAF

Data at: 1715 UTC 16 Oct 2021

KMNZ 161655Z AUTO 06011G17KT 10SM CLR 20/00 A3043 RMK AO2 T02001002
KMNZ 161635Z AUTO 04011G18KT 10SM CLR 20/00 A3043 RMK AO2 T01971004
KMNZ 161615Z AUTO 05009G17KT 10SM CLR 20/00 A3043 RMK AO2 T01950002
KMNZ 161555Z AUTO 04008KT 10SM CLR 19/03 A3043 RMK AO2 T01900026
KMNZ 161535Z AUTO 04009KT 10SM CLR 18/04 A3042 RMK AO2 T01840039
KMNZ 161515Z AUTO 04007KT 10SM CLR 18/05 A3042 RMK AO2 T01760045
KMNZ 161455Z AUTO 03009KT 10SM CLR 17/05 A3041 RMK AO2 T01700045
KMNZ 161435Z AUTO 03007KT 10SM CLR 16/05 A3041 RMK AO2 T01600051
KMNZ 161415Z AUTO 02007KT 10SM CLR 15/06 A3040 RMK AO2 T01470061
KMNZ 161355Z AUTO 35004KT 10SM CLR 13/07 A3039 RMK AO2 T01320074
KMNZ 161335Z AUTO 35004KT 10SM CLR 12/07 A3038 RMK AO2 T01170065
KMNZ 161315Z AUTO 32005KT 10SM CLR 10/06 A3038 RMK AO2 T00950057
KMNZ 161255Z AUTO 32005KT 10SM CLR 07/04 A3038 RMK AO2 T00740042
KMNZ 161235Z AUTO 30003KT 10SM CLR 08/04 A3037 RMK AO2 T00770039
KMNZ 161215Z AUTO 31003KT 10SM CLR 08/04 A3036 RMK AO2 T00800043
KMNZ 161155Z AUTO 31003KT 10SM CLR 08/04 A3035 RMK AO2 T00810043 10128 20081
KMNZ 161135Z AUTO 31003KT 10SM CLR 09/05 A3034 RMK AO2 T00850045
KMNZ 161115Z AUTO 35004KT 10SM CLR 09/05 A3034 RMK AO2 T00860046
KMNZ 161055Z AUTO 36004KT 10SM CLR 09/05 A3033 RMK AO2 T00870046
KMNZ 161035Z AUTO 36005KT 10SM CLR 09/05 A3033 RMK AO2 T00860046
KMNZ 161015Z AUTO 35003KT 10SM CLR 09/05 A3032 RMK AO2 T00900047
KMNZ 160955Z AUTO 35005KT 10SM CLR 09/05 A3032 RMK AO2 T00920050
KMNZ 160935Z AUTO 35005KT 10SM CLR 10/05 A3032 RMK AO2 T00950048
KMNZ 160915Z AUTO 35003KT 10SM CLR 10/05 A3032 RMK AO2 T00950046
KMNZ 160855Z AUTO 00000KT 10SM CLR 10/05 A3032 RMK AO2 T00990046
KMNZ 160835Z AUTO 36004KT 10SM CLR 10/05 A3032 RMK AO2 T01030048
KMNZ 160815Z AUTO 36006KT 10SM CLR 11/05 A3033 RMK AO2 T01100050
KMNZ 160755Z AUTO 01006KT 10SM CLR 12/05 A3033 RMK AO2 T01200050
KMNZ 160735Z AUTO 01009KT 10SM CLR 13/05 A3031 RMK AO2 T01250049
KMNZ 160715Z AUTO 02009KT 10SM CLR 13/05 A3031 RMK AO2 T01270046
KMNZ 160655Z AUTO 02005KT 10SM CLR 12/05 A3031 RMK AO2 T01200048
KMNZ 160635Z AUTO 01004KT 10SM CLR 11/05 A3031 RMK AO2 T01100051
KMNZ 160615Z AUTO 36004KT 10SM CLR 11/06 A3030 RMK AO2 T01130055
KMNZ 160555Z AUTO 01006KT 10SM CLR 12/06 A3030 RMK AO2 T01160060 10205 20113 402470113
KMNZ 160535Z AUTO 36006KT 10SM CLR 11/06 A3030 RMK AO2 T01140062
KMNZ 160515Z AUTO 35006KT 10SM CLR 11/06 A3030 RMK AO2 T01140063
KMNZ 160455Z AUTO 35005KT 10SM CLR 12/07 A3029 RMK AO2 T01200067
KMNZ 160435Z AUTO 36006KT 10SM CLR 12/07 A3029 RMK AO2 T01230070
KMNZ 160415Z AUTO 36006KT 10SM CLR 13/07 A3029 RMK AO2 T01310072
KMNZ 160355Z AUTO 36008KT 10SM CLR 14/08 A3028 RMK AO2 T01380077
KMNZ 160335Z AUTO 36008KT 10SM CLR 14/08 A3027 RMK AO2 T01430078
KMNZ 160315Z AUTO 01009KT 10SM CLR 15/08 A3025 RMK AO2 T01500080
KMNZ 160255Z AUTO 01008KT 10SM CLR 16/08 A3024 RMK AO2 T01560080
KMNZ 160235Z AUTO 01011KT 10SM CLR 15/08 A3023 RMK AO2 T01540079
KMNZ 160215Z AUTO 36008KT 10SM CLR 15/08 A3022 RMK AO2 T01530081
KMNZ 160155Z AUTO 36007KT 10SM CLR 16/08 A3022 RMK AO2 T01600081
KMNZ 160135Z AUTO 01007KT 10SM CLR 17/08 A3021 RMK AO2 T01650083
KMNZ 160115Z AUTO 36007KT 10SM CLR 17/09 A3020 RMK AO2 T01700087
KMNZ 160055Z AUTO 36007KT 10SM CLR 18/09 A3019 RMK AO2 T01800086
KMNZ 160035Z AUTO 36010KT 10SM CLR 19/09 A3017 RMK AO2 T01890085
KMNZ 160015Z AUTO 35009KT 10SM CLR 20/09 A3016 RMK AO2 T01950091
KMNZ 152355Z AUTO 36010KT 10SM CLR 21/09 A3015 RMK AO2 T02060091 10247 20206
KMNZ 152335Z AUTO 36013KT 10SM CLR 22/09 A3014 RMK AO2 T02150092
KMNZ 152315Z AUTO 01016KT 10SM CLR 22/10 A3013 RMK AO2 T02210097
KMNZ 152255Z AUTO 35013G18KT 10SM CLR 23/10 A3013 RMK AO2 T02260100
KMNZ 152235Z AUTO 36015KT 10SM CLR 23/10 A3012 RMK AO2 T02300096
KMNZ 152215Z AUTO 36016G24KT 10SM CLR 23/10 A3012 RMK AO2 T02320096
KMNZ 152155Z AUTO 36015G20KT 10SM CLR 24/11 A3011 RMK AO2 T02390107
KMNZ 152135Z AUTO 36017G24KT 10SM CLR 24/11 A3010 RMK AO2 T02400105
KMNZ 152115Z AUTO 36018G25KT 10SM CLR 24/11 A3010 RMK AO2 T02440113
KMNZ 152055Z AUTO 35019G23KT 10SM CLR 25/12 A3009 RMK AO2 T02450121
KMNZ 152035Z AUTO 34019G25KT 10SM CLR 25/12 A3009 RMK AO2 T02470123
KMNZ 152015Z AUTO 35021G27KT 10SM CLR 25/12 A3008 RMK AO2 T02450124
KMNZ 151955Z AUTO 36018G24KT 10SM CLR 24/13 A3008 RMK AO2 T02410128
KMNZ 151935Z AUTO 35013G21KT 10SM CLR 24/14 A3008 RMK AO2 T02410135
KMNZ 151915Z AUTO 36015G20KT 10SM CLR 23/14 A3008 RMK AO2 T02310139
KMNZ 151855Z AUTO 33019G26KT 10SM CLR 23/14 A3009 RMK AO2 T02250142
KMNZ 151835Z AUTO 34020G25KT 10SM SCT018 22/15 A3009 RMK AO2 T02190145
KMNZ 151815Z AUTO 34020G26KT 10SM BKN016 21/15 A3010 RMK AO2 T02120146
KMNZ 151755Z AUTO 33018G24KT 10SM OVC016 21/15 A3010 RMK AO2 T02070147 10230 20177
KMNZ 151735Z AUTO 33016G23KT 10SM BKN014 21/15 A3010 RMK AO2 T02060148
KMNZ 151715Z AUTO 34017G23KT 10SM OVC014 21/15 A3010 RMK AO2 T02050146
KMNZ 151655Z AUTO 33013KT 10SM OVC014 20/15 A3009 RMK AO2 T01970146
KMNZ 151635Z AUTO 32017KT 10SM OVC014 20/15 A3008 RMK AO2 T02000145
KMNZ 151615Z AUTO 32016G24KT 10SM SCT014 20/15 A3007 RMK AO2 T02020150
KMNZ 151555Z AUTO 33016KT 10SM SCT021 19/14 A3006 RMK AO2 T01890143
KMNZ 151535Z AUTO 32017KT 10SM BKN017 OVC022 18/14 A3006 RMK AO2 T01780138
KMNZ 151515Z AUTO 33013KT 10SM BKN012 OVC018 18/15 A3004 RMK AO2 T01790154
KMNZ 151455Z AUTO 32018G23KT 10SM OVC008 19/17 A3002 RMK AO2 T01910167
KMNZ 151435Z AUTO 31010KT 10SM BKN008 OVC014 23/23 A3000 RMK AO2 T02300230
KMNZ 151415Z AUTO 28008KT 10SM OVC008 23/23 A2999 RMK AO2 T02260226
KMNZ 151355Z AUTO 26008KT 10SM OVC006 23/23 A2998 RMK AO2 T02250225
KMNZ 151335Z AUTO 27008KT 10SM OVC006 22/22 A2997 RMK AO2 T02220222
KMNZ 151315Z AUTO 25013G16KT 10SM OVC006 22/22 A2995 RMK AO2 T02220222
KMNZ 151255Z AUTO 24008KT 7SM OVC006 22/22 A2994 RMK AO2 T02210221
KMNZ 151235Z AUTO 23009KT 10SM OVC008 22/22 A2993 RMK AO2 T02200220
KMNZ 151215Z AUTO 21009KT 10SM BKN008 22/22 A2992 RMK AO2 T02200220
KMNZ 151155Z AUTO 22009KT 10SM OVC010 22/22 A2992 RMK AO2 T02200220 10220 20200
KMNZ 151135Z AUTO 22009KT 10SM BKN010 22/22 A2992 RMK AO2 T02190219
KMNZ 151115Z AUTO 20009KT 7SM SCT006 SCT010 22/22 A2991 RMK AO2 T02170217
KMNZ 151055Z AUTO 21007KT 5SM BR BKN004 OVC010 22/22 A2992 RMK AO2 T02200220
KMNZ 151035Z AUTO 22007KT 4SM BR OVC002 22/22 A2991 RMK AO2 T02170217
KMNZ 151015Z AUTO 22010KT 4SM BR OVC002 22/22 A2991 RMK AO2 T02150215
KMNZ 150955Z AUTO 21010KT 1/2SM FG OVC002 21/21 A2990 RMK AO2 T02120212
KMNZ 150935Z AUTO 22008KT 1/2SM FG OVC002 21/21 A2991 RMK AO2 T02100210
KMNZ 150915Z AUTO 20006KT 3SM BR OVC002 21/21 A2990 RMK AO2 T02050205
KMNZ 150855Z AUTO 19007KT 3/4SM BR OVC002 20/20 A2989 RMK AO2 T02000200
KMNZ 150835Z AUTO 19007KT 2SM BR OVC002 20/20 A2988 RMK AO2 T02000200
KMNZ 150815Z AUTO 18008KT 4SM BR CLR 20/20 A2989 RMK AO2 T02020202
KMNZ 150755Z AUTO 18008KT 7SM CLR 21/21 A2989 RMK AO2 T02050205
KMNZ 150735Z AUTO 18009KT 7SM CLR 21/21 A2989 RMK AO2 T02050205
KMNZ 150715Z AUTO 18009KT 7SM CLR 20/20 A2989 RMK AO2 T02020202
KMNZ 150655Z AUTO 17007KT 7SM CLR 20/20 A2989 RMK AO2 T02010201
KMNZ 150635Z AUTO 19005KT 7SM CLR 20/20 A2989 RMK AO2 T02010201
KMNZ 150615Z AUTO 18006KT 7SM CLR 20/20 A2989 RMK AO2 T02030203
KMNZ 150555Z AUTO 18006KT 7SM CLR 20/20 A2989 RMK AO2 T02040204 10263 20203 402940195
KMNZ 150535Z AUTO 19005KT 7SM CLR 21/21 A2990 RMK AO2 T02050205